Time;durP1;ratioP1;P1;durP2;ratioP2;P2;SDS_P1;SDS_P2;PMS_P1;PMS_P2;Temp;Humidity;BMP_temperature;BMP_pressure;BME280_temperature;BME280_humidity;BME280_pressure;Samples;Min_cycle;Max_cycle;Signal;HPM_P1;HPM_P2
2022/04/07 00:01:39;;;;;;;6.32;4.50;;;9.70;96.70;;;;;;5104316;27;20085;-77
2022/04/07 00:04:09;;;;;;;6.22;4.30;;;9.90;96.70;;;;;;5086887;28;20554;-76
2022/04/07 00:06:37;;;;;;;7.07;4.47;;;10.10;96.70;;;;;;5070396;28;20462;-77
2022/04/07 00:09:06;;;;;;;7.07;4.60;;;10.20;96.70;;;;;;5085933;28;20097;-77
2022/04/07 00:11:34;;;;;;;5.05;4.55;;;10.10;96.70;;;;;;5105808;28;20067;-77
2022/04/07 00:14:02;;;;;;;5.20;4.55;;;10.10;96.70;;;;;;5065880;28;20040;-77
2022/04/07 00:16:31;;;;;;;6.80;4.95;;;10.10;96.70;;;;;;5078706;28;20044;-77
2022/04/07 00:18:59;;;;;;;6.00;4.80;;;10.20;96.70;;;;;;5105182;28;20043;-77
2022/04/07 00:21:50;;;;;;;6.68;4.65;;;10.20;96.70;;;;;;5088473;28;20084;-76
2022/04/07 00:24:17;;;;;;;5.80;4.80;;;10.00;96.70;;;;;;5104276;28;20043;-76
2022/04/07 00:26:45;;;;;;;5.95;5.13;;;9.80;96.70;;;;;;5087093;28;20071;-76
2022/04/07 00:29:14;;;;;;;6.45;4.80;;;9.70;96.70;;;;;;5086437;28;20065;-77
2022/04/07 00:31:42;;;;;;;6.38;5.00;;;9.60;96.70;;;;;;5086885;28;20150;-76
2022/04/07 00:34:11;;;;;;;6.82;5.50;;;9.50;96.70;;;;;;5079252;28;20129;-76
2022/04/07 00:36:41;;;;;;;6.03;5.25;;;9.50;96.70;;;;;;5083654;28;20040;-76
2022/04/07 00:39:09;;;;;;;5.72;4.72;;;9.40;96.70;;;;;;5084302;28;20051;-77
2022/04/07 00:41:39;;;;;;;5.05;4.55;;;9.40;96.70;;;;;;5086363;28;20113;-76
2022/04/07 00:44:08;;;;;;;6.05;5.45;;;9.40;96.70;;;;;;5082329;28;20047;-76
2022/04/07 00:46:38;;;;;;;7.57;5.72;;;9.40;96.70;;;;;;5086068;28;20051;-76
2022/04/07 00:49:07;;;;;;;5.40;4.43;;;9.40;96.70;;;;;;5082802;28;20048;-76
2022/04/07 00:51:38;;;;;;;6.57;5.22;;;9.30;96.70;;;;;;5085952;28;20035;-77
2022/04/07 00:54:09;;;;;;;5.75;4.90;;;9.20;96.70;;;;;;5067364;28;20043;-76
2022/04/07 00:56:40;;;;;;;4.82;4.20;;;9.10;96.70;;;;;;5085043;28;20032;-77
2022/04/07 00:59:10;;;;;;;5.75;5.00;;;9.20;96.70;;;;;;5081183;28;20058;-76
2022/04/07 01:01:39;;;;;;;5.57;4.63;;;9.30;96.70;;;;;;5091936;28;20071;-77
2022/04/07 01:04:07;;;;;;;6.20;4.25;;;9.30;96.70;;;;;;5086139;28;20046;-77
2022/04/07 01:06:35;;;;;;;5.00;4.20;;;9.30;96.70;;;;;;5085420;28;20044;-77
2022/04/07 01:09:03;;;;;;;5.20;4.60;;;9.40;96.70;;;;;;5104171;28;20162;-77
2022/04/07 01:11:37;;;;;;;4.38;3.92;;;9.50;96.70;;;;;;5104296;28;20043;-83
2022/04/07 01:14:07;;;;;;;5.03;4.13;;;9.70;96.70;;;;;;5071290;28;20047;-77
2022/04/07 01:16:36;;;;;;;5.10;3.88;;;9.70;96.70;;;;;;5087590;28;20047;-77
2022/04/07 01:19:05;;;;;;;5.90;4.20;;;9.80;96.70;;;;;;5085522;28;20664;-77
2022/04/07 01:21:36;;;;;;;6.57;4.03;;;9.80;96.70;;;;;;5071741;28;20052;-77
2022/04/07 01:24:06;;;;;;;5.10;3.88;;;9.80;96.70;;;;;;5101473;28;20401;-76
2022/04/07 01:26:37;;;;;;;6.05;3.80;;;10.00;96.70;;;;;;5085476;28;20134;-77
2022/04/07 01:29:06;;;;;;;5.82;3.95;;;10.00;96.70;;;;;;5085443;28;20286;-76
2022/04/07 01:31:34;;;;;;;4.95;3.90;;;9.80;96.70;;;;;;5099101;28;20039;-77
2022/04/07 01:34:06;;;;;;;4.97;3.55;;;9.70;96.70;;;;;;5086397;28;20413;-77
2022/04/07 01:36:38;;;;;;;7.22;3.90;;;9.70;96.70;;;;;;5084768;28;20052;-77
2022/04/07 01:39:08;;;;;;;4.30;3.90;;;9.70;96.70;;;;;;5058838;28;20513;-77
2022/04/07 01:41:39;;;;;;;4.18;3.78;;;9.70;96.70;;;;;;5103601;28;20047;-76
2022/04/07 01:44:09;;;;;;;4.88;3.63;;;9.70;96.70;;;;;;5085101;28;20044;-76
2022/04/07 01:46:38;;;;;;;5.22;3.67;;;9.70;96.70;;;;;;5103033;28;20090;-77
2022/04/07 01:49:08;;;;;;;4.63;3.88;;;9.70;96.70;;;;;;5085118;28;20088;-74
2022/04/07 01:51:37;;;;;;;5.07;3.50;;;9.70;96.70;;;;;;5085219;28;20039;-74
2022/04/07 01:54:11;;;;;;;5.93;3.97;;;9.80;96.70;;;;;;5084374;28;20121;-74
2022/04/07 01:56:43;;;;;;;5.45;4.35;;;9.80;96.70;;;;;;5102829;28;20040;-75
2022/04/07 01:59:12;;;;;;;6.30;3.85;;;9.80;96.70;;;;;;5087168;27;20051;-74
2022/04/07 02:01:40;;;;;;;5.45;4.32;;;9.90;96.70;;;;;;5078617;28;20045;-75
2022/04/07 02:04:08;;;;;;;4.70;4.28;;;9.90;96.70;;;;;;5101916;28;20053;-75
2022/04/07 02:06:36;;;;;;;6.93;4.68;;;9.80;96.70;;;;;;5081497;28;20097;-75
2022/04/07 02:09:04;;;;;;;5.82;4.70;;;9.80;96.70;;;;;;5067596;28;20528;-75
2022/04/07 02:11:32;;;;;;;6.22;4.50;;;9.80;96.70;;;;;;5084938;28;20043;-75
2022/04/07 02:14:02;;;;;;;5.25;4.43;;;9.70;96.70;;;;;;5087445;27;20075;-75
2022/04/07 02:16:30;;;;;;;6.32;4.78;;;9.70;96.70;;;;;;5070649;28;20047;-74
2022/04/07 02:18:59;;;;;;;5.82;4.35;;;9.70;96.70;;;;;;5068031;28;20144;-74
2022/04/07 02:21:27;;;;;;;6.43;4.80;;;9.60;96.70;;;;;;5085001;28;20063;-75
2022/04/07 02:23:56;;;;;;;5.97;4.47;;;9.50;96.70;;;;;;5067557;28;20138;-74
2022/04/07 02:26:24;;;;;;;4.97;4.47;;;9.60;96.70;;;;;;5101707;28;20051;-75
2022/04/07 02:28:52;;;;;;;5.10;4.10;;;9.60;96.70;;;;;;5087502;28;20054;-75
2022/04/07 02:31:22;;;;;;;5.22;4.30;;;9.60;96.70;;;;;;5084152;28;20790;-74
2022/04/07 02:33:50;;;;;;;4.88;4.20;;;9.60;96.70;;;;;;5102120;28;20501;-75
2022/04/07 02:36:19;;;;;;;5.18;4.28;;;9.60;96.70;;;;;;5084792;28;20549;-74
2022/04/07 02:38:47;;;;;;;5.40;4.45;;;9.50;96.70;;;;;;5078616;28;20115;-74
2022/04/07 02:41:16;;;;;;;5.97;4.47;;;9.50;96.70;;;;;;5101693;28;20043;-75
2022/04/07 02:43:46;;;;;;;5.15;3.97;;;9.40;96.70;;;;;;5103701;28;20051;-82
2022/04/07 02:46:15;;;;;;;5.43;4.45;;;9.40;96.70;;;;;;5090133;28;20040;-80
2022/04/07 02:48:44;;;;;;;5.80;4.40;;;9.40;96.70;;;;;;5084168;28;20039;-81
2022/04/07 02:51:13;;;;;;;4.72;3.92;;;9.30;96.70;;;;;;5107107;28;20036;-82
2022/04/07 02:53:41;;;;;;;4.13;3.47;;;9.30;96.70;;;;;;5089290;28;20070;-78
2022/04/07 02:56:09;;;;;;;4.68;4.15;;;9.20;96.70;;;;;;5089447;28;20047;-82
2022/04/07 02:58:37;;;;;;;5.57;4.05;;;9.20;96.70;;;;;;5068163;28;20576;-79
2022/04/07 03:01:06;;;;;;;4.95;3.75;;;9.20;96.70;;;;;;5089677;28;20036;-81
2022/04/07 03:03:34;;;;;;;5.32;3.90;;;9.20;96.70;;;;;;5079397;28;20040;-81
2022/04/07 03:06:04;;;;;;;5.28;4.07;;;9.20;96.70;;;;;;5089586;28;20089;-79
2022/04/07 03:08:35;;;;;;;4.20;3.80;;;9.20;96.70;;;;;;5110526;28;20574;-79
2022/04/07 03:11:05;;;;;;;4.50;3.80;;;9.10;96.70;;;;;;5111065;28;20329;-81
2022/04/07 03:13:36;;;;;;;4.60;3.67;;;9.10;96.70;;;;;;5112041;28;20071;-81
2022/04/07 03:16:05;;;;;;;7.30;3.75;;;9.10;96.70;;;;;;5111349;28;20244;-81
2022/04/07 03:18:34;;;;;;;4.47;4.00;;;9.10;96.70;;;;;;5092888;28;20624;-80
2022/04/07 03:21:04;;;;;;;5.10;3.60;;;9.10;96.70;;;;;;5090008;28;20559;-81
2022/04/07 03:23:32;;;;;;;4.43;3.80;;;9.10;96.70;;;;;;5093093;28;20043;-80
2022/04/07 03:26:01;;;;;;;4.45;4.00;;;9.00;96.70;;;;;;5092911;28;20036;-81
2022/04/07 03:28:29;;;;;;;4.50;3.33;;;9.00;96.70;;;;;;5093125;28;20044;-81
2022/04/07 03:30:57;;;;;;;4.50;3.63;;;9.00;96.70;;;;;;5092660;28;20067;-81
2022/04/07 03:33:25;;;;;;;6.03;3.70;;;9.00;96.70;;;;;;5076163;28;20064;-81
2022/04/07 03:35:54;;;;;;;4.70;3.55;;;9.00;96.70;;;;;;5075499;28;20044;-81
2022/04/07 03:38:23;;;;;;;4.50;3.30;;;9.00;96.70;;;;;;5110980;28;20070;-80
2022/04/07 03:40:51;;;;;;;4.55;3.70;;;9.00;96.70;;;;;;5091818;28;20135;-81
2022/04/07 03:43:21;;;;;;;4.32;3.72;;;9.00;96.70;;;;;;5092755;28;20039;-82
2022/04/07 03:45:49;;;;;;;3.65;3.17;;;9.00;96.70;;;;;;5092486;28;20116;-81
2022/04/07 03:48:18;;;;;;;4.43;3.15;;;9.00;96.70;;;;;;5096675;28;20047;-81
2022/04/07 03:50:46;;;;;;;3.88;3.33;;;9.00;96.70;;;;;;5072015;28;20051;-81
2022/04/07 03:53:14;;;;;;;4.15;3.60;;;8.90;96.70;;;;;;5089651;28;20045;-81
2022/04/07 03:55:44;;;;;;;4.45;3.83;;;8.90;96.70;;;;;;5098925;28;20043;-81
2022/04/07 03:58:12;;;;;;;4.60;3.80;;;8.90;96.70;;;;;;5092277;28;20089;-81
2022/04/07 04:00:40;;;;;;;4.85;3.90;;;8.90;96.70;;;;;;5091374;28;20052;-81
2022/04/07 04:03:09;;;;;;;3.90;3.50;;;8.90;96.70;;;;;;5092081;28;20457;-82
2022/04/07 04:05:38;;;;;;;4.38;3.47;;;8.90;96.70;;;;;;5108502;28;20070;-81
2022/04/07 04:08:06;;;;;;;5.85;3.83;;;8.80;96.70;;;;;;5109846;28;20139;-80
2022/04/07 04:10:34;;;;;;;4.53;3.88;;;8.80;96.70;;;;;;5094826;28;20039;-80
2022/04/07 04:13:04;;;;;;;4.55;3.35;;;8.70;96.70;;;;;;5075629;28;20802;-80
2022/04/07 04:15:33;;;;;;;4.63;3.50;;;8.70;96.70;;;;;;5091800;28;20049;-81
2022/04/07 04:18:01;;;;;;;5.35;4.28;;;8.70;96.70;;;;;;5109741;28;20085;-80
2022/04/07 04:20:29;;;;;;;4.38;3.90;;;8.60;96.70;;;;;;5110148;28;20052;-81
2022/04/07 04:22:57;;;;;;;3.65;3.22;;;8.60;96.70;;;;;;5091234;28;20071;-80
2022/04/07 04:25:26;;;;;;;4.05;3.63;;;8.60;96.70;;;;;;5091784;28;20051;-81
2022/04/07 04:27:54;;;;;;;3.63;3.20;;;8.60;96.70;;;;;;5091855;28;20069;-81
2022/04/07 04:30:25;;;;;;;3.58;3.10;;;8.60;96.70;;;;;;5083228;28;20043;-81
2022/04/07 04:32:54;;;;;;;4.55;3.38;;;8.60;96.70;;;;;;5091440;28;20454;-81
2022/04/07 04:35:22;;;;;;;3.55;2.85;;;8.60;96.70;;;;;;5091371;28;20413;-80
2022/04/07 04:37:50;;;;;;;4.15;3.28;;;8.50;96.70;;;;;;5090792;28;20036;-82
2022/04/07 04:40:19;;;;;;;5.00;3.30;;;8.50;96.70;;;;;;5109103;28;20140;-83
2022/04/07 04:42:47;;;;;;;3.83;3.15;;;8.50;96.70;;;;;;5090269;28;20039;-83
2022/04/07 04:45:15;;;;;;;4.13;3.72;;;8.50;96.70;;;;;;5091259;28;20055;-83
2022/04/07 04:47:45;;;;;;;4.63;3.75;;;8.50;96.70;;;;;;5091345;28;20059;-83
2022/04/07 04:50:13;;;;;;;6.07;3.72;;;8.50;96.70;;;;;;5091411;28;20073;-83
2022/04/07 04:52:41;;;;;;;5.13;4.13;;;8.30;96.70;;;;;;5087769;28;20134;-83
2022/04/07 04:55:11;;;;;;;4.72;3.95;;;8.20;96.70;;;;;;5071211;28;20048;-84
2022/04/07 04:57:39;;;;;;;4.55;3.35;;;8.30;96.70;;;;;;5073301;28;20393;-83
2022/04/07 05:00:08;;;;;;;5.15;3.83;;;8.30;96.70;;;;;;5108087;28;20060;-84
2022/04/07 05:02:37;;;;;;;5.15;4.00;;;8.30;96.70;;;;;;5109061;28;20558;-83
2022/04/07 05:05:08;;;;;;;5.43;3.60;;;8.30;96.70;;;;;;5073297;28;20077;-84
2022/04/07 05:07:36;;;;;;;7.72;4.10;;;8.20;96.70;;;;;;5108431;28;20058;-84
2022/04/07 05:10:06;;;;;;;3.65;3.15;;;8.20;96.70;;;;;;5107733;28;20119;-84
2022/04/07 05:12:34;;;;;;;3.25;2.92;;;8.10;96.70;;;;;;5108562;28;20047;-83
2022/04/07 05:15:03;;;;;;;4.20;3.03;;;8.00;96.70;;;;;;5109176;28;20059;-82
2022/04/07 05:17:31;;;;;;;3.25;2.95;;;8.00;96.70;;;;;;5088815;28;20054;-84
2022/04/07 05:19:59;;;;;;;3.72;3.33;;;8.10;96.70;;;;;;5109528;28;20135;-84
2022/04/07 05:22:29;;;;;;;3.70;3.00;;;8.20;96.70;;;;;;5105091;28;20120;-82
2022/04/07 05:24:57;;;;;;;3.85;3.45;;;8.10;96.70;;;;;;5086965;28;20050;-75
2022/04/07 05:27:28;;;;;;;3.88;3.38;;;8.10;96.70;;;;;;5082519;28;20047;-76
2022/04/07 05:29:56;;;;;;;4.15;3.30;;;8.20;96.70;;;;;;5080998;28;20043;-76
2022/04/07 05:32:24;;;;;;;4.03;3.55;;;8.30;96.70;;;;;;5101786;28;20084;-76
2022/04/07 05:34:52;;;;;;;4.53;3.75;;;8.30;96.70;;;;;;5084005;28;20043;-77
2022/04/07 05:37:21;;;;;;;4.88;3.75;;;8.30;96.70;;;;;;5085705;28;20040;-81
2022/04/07 05:39:54;;;;;;;5.22;3.78;;;8.20;96.70;;;;;;5106783;28;20443;-83
2022/04/07 05:42:22;;;;;;;4.80;3.78;;;8.20;96.70;;;;;;5090363;28;20051;-83
2022/04/07 05:44:50;;;;;;;7.18;4.30;;;8.20;96.70;;;;;;5090354;28;20042;-83
2022/04/07 05:47:18;;;;;;;9.60;3.88;;;8.20;96.70;;;;;;5073389;28;20057;-82
2022/04/07 05:49:47;;;;;;;7.57;3.92;;;8.30;96.70;;;;;;5070077;28;20569;-76
2022/04/07 05:52:15;;;;;;;5.32;3.90;;;8.30;96.70;;;;;;5100719;28;20093;-77
2022/04/07 05:54:43;;;;;;;5.03;4.53;;;8.30;96.70;;;;;;5084738;28;20058;-75
2022/04/07 05:57:13;;;;;;;5.10;4.57;;;8.30;96.70;;;;;;5085782;28;20046;-74
2022/04/07 05:59:41;;;;;;;4.75;4.22;;;8.50;96.70;;;;;;5084297;28;20070;-75
2022/04/07 06:02:09;;;;;;;4.57;4.18;;;8.50;96.70;;;;;;5103801;28;20123;-77
2022/04/07 06:04:39;;;;;;;6.57;4.88;;;8.60;96.70;;;;;;5080918;28;20122;-77
2022/04/07 06:07:07;;;;;;;5.13;4.55;;;8.50;96.70;;;;;;5099688;28;20048;-77
2022/04/07 06:09:36;;;;;;;4.53;4.13;;;8.50;96.70;;;;;;5083341;28;20054;-76
2022/04/07 06:12:05;;;;;;;4.68;4.07;;;8.50;96.70;;;;;;5085144;28;20051;-76
2022/04/07 06:14:34;;;;;;;5.25;4.50;;;8.60;96.70;;;;;;5085257;28;20967;-77
2022/04/07 06:17:03;;;;;;;5.18;4.68;;;8.60;96.70;;;;;;5085124;28;20051;-77
2022/04/07 06:19:32;;;;;;;5.07;4.55;;;8.70;96.70;;;;;;5067320;28;20074;-77
2022/04/07 06:22:00;;;;;;;5.18;4.68;;;8.80;96.70;;;;;;5102312;28;20242;-76
2022/04/07 06:24:29;;;;;;;5.40;4.57;;;8.80;96.70;;;;;;5100424;28;20123;-77
2022/04/07 06:26:58;;;;;;;6.47;5.00;;;9.00;96.70;;;;;;5101349;28;20042;-81
2022/04/07 06:29:26;;;;;;;6.53;5.80;;;9.00;96.70;;;;;;5105041;28;20375;-78
2022/04/07 06:31:56;;;;;;;7.50;6.40;;;9.00;96.70;;;;;;5068274;28;20043;-79
2022/04/07 06:34:26;;;;;;;8.93;6.68;;;9.10;96.70;;;;;;5084682;28;20039;-79
2022/04/07 06:36:55;;;;;;;6.68;5.72;;;9.10;96.70;;;;;;5086479;28;20745;-78
2022/04/07 06:39:23;;;;;;;8.80;7.13;;;9.10;96.70;;;;;;5082929;28;20395;-77
2022/04/07 06:41:52;;;;;;;7.57;6.20;;;9.20;96.70;;;;;;5074939;28;20048;-77
2022/04/07 06:44:20;;;;;;;9.15;6.93;;;9.30;96.70;;;;;;5106049;28;20129;-77
2022/04/07 06:46:48;;;;;;;8.73;7.18;;;9.30;96.70;;;;;;5071164;28;20054;-77
2022/04/07 06:49:17;;;;;;;10.68;6.57;;;9.50;96.70;;;;;;5089218;28;20513;-78
2022/04/07 06:51:45;;;;;;;9.88;7.93;;;9.60;96.70;;;;;;5088385;28;20043;-78
2022/04/07 06:54:14;;;;;;;9.02;6.60;;;9.80;96.70;;;;;;5073769;27;20488;-78
2022/04/07 06:56:42;;;;;;;9.70;6.95;;;9.90;96.70;;;;;;5106956;28;20046;-78
2022/04/07 06:59:10;;;;;;;9.75;6.50;;;10.00;96.70;;;;;;5070459;28;20572;-78
2022/04/07 07:01:38;;;;;;;6.80;6.10;;;10.00;96.70;;;;;;5071546;28;20117;-78
2022/04/07 07:04:07;;;;;;;7.95;6.05;;;10.10;96.70;;;;;;5087264;28;20453;-78
2022/04/07 07:06:36;;;;;;;7.18;5.47;;;10.20;96.70;;;;;;5088077;28;20039;-78
2022/04/07 07:09:05;;;;;;;6.78;5.80;;;10.30;96.70;;;;;;5103449;27;20112;-78
2022/04/07 07:11:33;;;;;;;8.38;6.20;;;10.50;96.70;;;;;;5106287;28;20036;-77
2022/04/07 07:14:01;;;;;;;5.93;5.30;;;10.60;96.70;;;;;;5072312;28;20435;-78
2022/04/07 07:16:29;;;;;;;8.70;6.30;;;10.70;96.70;;;;;;5100895;28;20051;-78
2022/04/07 07:18:57;;;;;;;6.85;5.38;;;10.70;96.70;;;;;;5107438;28;20069;-78
2022/04/07 07:21:25;;;;;;;5.50;4.97;;;10.70;96.70;;;;;;5105829;28;20088;-77
2022/04/07 07:23:54;;;;;;;4.93;4.40;;;10.80;96.70;;;;;;5106178;27;20653;-78
2022/04/07 07:26:22;;;;;;;5.40;4.90;;;10.80;96.70;;;;;;5087555;28;20440;-77
2022/04/07 07:28:50;;;;;;;6.68;5.03;;;10.90;96.70;;;;;;5105286;28;20067;-77
2022/04/07 07:31:18;;;;;;;6.10;4.70;;;11.00;96.70;;;;;;5070723;28;20524;-78
2022/04/07 07:33:46;;;;;;;6.28;5.28;;;11.00;96.70;;;;;;5107601;28;20048;-77
2022/04/07 07:36:14;;;;;;;5.82;4.60;;;11.00;96.70;;;;;;5070152;28;20043;-79
2022/04/07 07:38:43;;;;;;;7.40;4.53;;;11.00;96.70;;;;;;5104589;27;20039;-78
2022/04/07 07:41:12;;;;;;;7.15;4.95;;;11.00;96.70;;;;;;5105176;28;20104;-77
2022/04/07 07:43:40;;;;;;;5.38;4.38;;;11.10;96.70;;;;;;5088015;28;20043;-78
2022/04/07 07:46:08;;;;;;;5.80;4.43;;;11.10;96.70;;;;;;5087419;28;20040;-77
2022/04/07 07:48:37;;;;;;;5.22;4.32;;;11.20;96.70;;;;;;5087854;28;20056;-77
2022/04/07 07:51:05;;;;;;;6.65;4.85;;;11.30;96.70;;;;;;5104759;28;20039;-77
2022/04/07 07:53:33;;;;;;;5.90;4.63;;;11.40;96.70;;;;;;5072977;28;20574;-78
2022/04/07 07:56:01;;;;;;;5.32;4.55;;;11.50;96.70;;;;;;5067753;28;20174;-78
2022/04/07 07:58:30;;;;;;;5.75;4.35;;;11.60;96.70;;;;;;5105957;28;20044;-77
2022/04/07 08:00:58;;;;;;;5.50;4.38;;;11.70;96.70;;;;;;5104707;28;20479;-80
2022/04/07 08:03:27;;;;;;;5.47;4.15;;;11.80;96.70;;;;;;5106135;28;20052;-78
2022/04/07 08:05:55;;;;;;;4.38;3.90;;;12.00;96.70;;;;;;5077210;28;20054;-78
2022/04/07 08:08:23;;;;;;;8.27;4.30;;;12.00;96.70;;;;;;5090874;28;20094;-78
2022/04/07 08:10:51;;;;;;;5.43;3.85;;;12.00;96.70;;;;;;5086859;28;20040;-78
2022/04/07 08:13:20;;;;;;;6.78;3.45;;;12.00;96.70;;;;;;5101422;28;20053;-78
2022/04/07 08:15:52;;;;;;;5.82;3.58;;;12.00;96.70;;;;;;5087348;28;20058;-78
2022/04/07 08:18:20;;;;;;;4.47;3.47;;;12.00;96.70;;;;;;5104626;28;20036;-77
2022/04/07 08:20:49;;;;;;;3.33;3.03;;;12.00;96.70;;;;;;5087940;28;20046;-78
2022/04/07 08:23:17;;;;;;;3.35;3.05;;;11.90;96.70;;;;;;5086861;28;20066;-78
2022/04/07 08:25:45;;;;;;;4.57;3.42;;;11.90;96.70;;;;;;5081229;28;20077;-78
2022/04/07 08:28:13;;;;;;;5.28;2.92;;;11.90;96.70;;;;;;5081060;28;20044;-80
2022/04/07 08:30:41;;;;;;;4.10;3.30;;;11.90;96.70;;;;;;5084658;28;20046;-78
2022/04/07 08:33:11;;;;;;;5.35;3.85;;;11.90;96.70;;;;;;5068606;28;20039;-79
2022/04/07 08:35:39;;;;;;;5.00;3.72;;;11.90;96.70;;;;;;5088792;28;20074;-79
2022/04/07 08:38:09;;;;;;;4.70;3.58;;;11.90;96.70;;;;;;5087286;28;20613;-78
2022/04/07 08:40:40;;;;;;;6.22;4.22;;;12.00;96.70;;;;;;5084233;28;20054;-79
2022/04/07 08:43:09;;;;;;;6.95;5.03;;;12.00;96.70;;;;;;5085310;28;20072;-79
2022/04/07 08:45:37;;;;;;;7.18;5.40;;;12.00;96.70;;;;;;5087065;28;20130;-77
2022/04/07 08:48:08;;;;;;;5.63;4.70;;;12.00;96.70;;;;;;5081345;28;20040;-78
2022/04/07 08:50:40;;;;;;;9.23;5.57;;;12.00;96.70;;;;;;5087295;27;20048;-78
2022/04/07 08:53:08;;;;;;;8.02;5.72;;;12.00;96.70;;;;;;5104626;27;20075;-78
2022/04/07 08:55:37;;;;;;;16.67;10.35;;;12.10;96.70;;;;;;5086525;28;20722;-77
2022/04/07 08:58:05;;;;;;;13.93;9.90;;;12.10;96.70;;;;;;5069472;28;20047;-78
2022/04/07 09:00:33;;;;;;;16.05;10.75;;;12.10;96.70;;;;;;5104799;28;20058;-78
2022/04/07 09:03:01;;;;;;;9.85;7.10;;;12.10;96.70;;;;;;5086329;28;20047;-78
2022/04/07 09:05:32;;;;;;;10.68;7.15;;;12.10;96.70;;;;;;5071909;27;20442;-78
2022/04/07 09:08:02;;;;;;;8.82;5.78;;;12.10;96.70;;;;;;5101901;28;20051;-78
2022/04/07 09:10:30;;;;;;;7.72;5.55;;;12.20;96.70;;;;;;5104625;28;20142;-78
2022/04/07 09:13:07;;;;;;;8.00;6.00;;;12.20;96.70;;;;;;5079910;28;20540;-78
2022/04/07 09:15:35;;;;;;;8.85;6.82;;;12.30;96.70;;;;;;5078920;28;20088;-78
2022/04/07 09:18:05;;;;;;;9.40;5.93;;;12.40;96.70;;;;;;5085673;28;20043;-78
2022/04/07 09:20:42;;;;;;;8.85;6.15;;;12.40;96.70;;;;;;5092434;28;20425;-78
2022/04/07 09:23:13;;;;;;;13.70;6.90;;;12.40;96.70;;;;;;5104234;28;20047;-78
2022/04/07 09:25:44;;;;;;;11.52;7.20;;;12.40;96.70;;;;;;5101570;28;20031;-78
2022/04/07 09:28:23;;;;;;;10.05;6.25;;;12.40;96.70;;;;;;5086849;28;20375;-79
2022/04/07 09:30:51;;;;;;;10.68;6.45;;;12.50;96.70;;;;;;5105015;28;20066;-79
2022/04/07 09:33:21;;;;;;;10.70;6.50;;;12.50;96.70;;;;;;5103223;28;20042;-78
2022/04/07 09:36:04;;;;;;;8.43;5.50;;;12.40;96.70;;;;;;5085485;28;20046;-78
2022/04/07 09:38:34;;;;;;;11.32;6.30;;;12.50;96.70;;;;;;5067977;28;20143;-83
2022/04/07 09:41:04;;;;;;;9.75;5.93;;;12.50;96.70;;;;;;5072693;28;20051;-81
2022/04/07 09:43:42;;;;;;;6.63;4.53;;;12.40;96.70;;;;;;5090996;28;20039;-82
2022/04/07 09:46:11;;;;;;;7.07;4.47;;;12.50;96.70;;;;;;5089732;28;20463;-83
2022/04/07 09:48:39;;;;;;;6.20;3.92;;;12.50;96.70;;;;;;5089969;28;20084;-83
2022/04/07 09:51:08;;;;;;;7.93;3.80;;;12.50;96.70;;;;;;5107787;28;20078;-82
2022/04/07 09:53:39;;;;;;;5.68;3.58;;;12.50;96.70;;;;;;5104047;28;20038;-83
2022/04/07 09:56:09;;;;;;;6.55;3.53;;;12.60;96.70;;;;;;5106212;28;20054;-84
2022/04/07 09:58:38;;;;;;;5.30;3.70;;;12.60;96.70;;;;;;5108781;28;20055;-83
2022/04/07 10:01:06;;;;;;;6.85;3.78;;;12.70;96.70;;;;;;5089716;28;20505;-83
2022/04/07 10:03:35;;;;;;;8.65;5.93;;;12.70;96.70;;;;;;5090176;28;20043;-84
2022/04/07 10:06:04;;;;;;;7.32;4.63;;;12.70;96.70;;;;;;5069110;28;20046;-83
2022/04/07 10:08:32;;;;;;;7.78;3.95;;;12.80;96.70;;;;;;5069761;28;20055;-81
2022/04/07 10:11:03;;;;;;;7.07;3.72;;;13.00;96.70;;;;;;5079899;28;20051;-83
2022/04/07 10:13:32;;;;;;;8.93;4.53;;;13.10;96.70;;;;;;5086323;28;20054;-83
2022/04/07 10:16:01;;;;;;;9.30;5.60;;;13.10;96.70;;;;;;5087202;28;20036;-82
2022/04/07 10:18:34;;;;;;;7.00;4.15;;;13.10;96.70;;;;;;5084803;28;20055;-81
2022/04/07 10:21:05;;;;;;;5.60;3.78;;;13.10;96.70;;;;;;5078357;28;20049;-81
2022/04/07 10:23:47;;;;;;;8.60;5.10;;;13.10;96.70;;;;;;5083726;28;20044;-82
2022/04/07 10:26:19;;;;;;;14.60;12.30;;;13.20;96.70;;;;;;5084262;28;20383;-82
2022/04/07 10:28:54;;;;;;;13.77;10.00;;;13.30;96.70;;;;;;5065280;28;20136;-82
2022/04/07 10:31:25;;;;;;;11.45;7.35;;;13.50;96.70;;;;;;5082085;28;20593;-82
2022/04/07 10:34:05;;;;;;;14.02;7.63;;;13.50;96.70;;;;;;5084011;28;20070;-81
2022/04/07 10:36:40;;;;;;;12.07;7.00;;;13.50;96.70;;;;;;5082330;28;20044;-82
2022/04/07 10:39:15;;;;;;;13.27;7.57;;;13.40;96.70;;;;;;5085816;28;20071;-81
2022/04/07 10:41:50;;;;;;;10.82;7.22;;;13.50;96.70;;;;;;5085637;28;20150;-82
2022/04/07 10:44:21;;;;;;;8.07;4.60;;;13.60;96.70;;;;;;5087530;28;20068;-81
2022/04/07 10:47:00;;;;;;;7.60;4.50;;;13.70;96.70;;;;;;5084845;28;20075;-81
2022/04/07 10:49:30;;;;;;;6.15;4.03;;;13.80;96.70;;;;;;5086025;28;20111;-82
2022/04/07 10:52:00;;;;;;;7.15;4.53;;;14.00;96.70;;;;;;5086777;28;20036;-82
2022/04/07 10:54:28;;;;;;;6.25;4.70;;;14.20;96.70;;;;;;5081562;28;20052;-82
2022/04/07 10:57:01;;;;;;;9.52;4.38;;;14.40;96.70;;;;;;5085480;28;20119;-82
2022/04/07 10:59:32;;;;;;;5.88;4.03;;;14.40;96.70;;;;;;5078055;28;20052;-80
2022/04/07 11:02:02;;;;;;;5.70;3.55;;;14.60;96.70;;;;;;5084133;28;20055;-84
2022/04/07 11:05:03;;;;;;;5.30;3.75;;;14.60;96.70;;;;;;5085793;28;20051;-83
2022/04/07 11:07:50;;;;;;;5.13;3.50;;;14.60;96.70;;;;;;5077367;28;20414;-83
2022/04/07 11:10:39;;;;;;;7.00;3.55;;;14.60;96.70;;;;;;5086114;28;20040;-83
2022/04/07 11:13:09;;;;;;;8.07;3.80;;;14.50;96.70;;;;;;5084125;28;20513;-85
2022/04/07 11:15:49;;;;;;;7.05;3.97;;;14.50;96.70;;;;;;5086258;28;20052;-84
2022/04/07 11:18:53;;;;;;;5.22;3.42;;;14.40;96.70;;;;;;5077231;28;20052;-84
2022/04/07 11:21:25;;;;;;;6.65;4.10;;;14.40;96.70;;;;;;5063009;28;20111;-83
2022/04/07 11:23:53;;;;;;;8.32;4.80;;;14.40;96.70;;;;;;5086606;28;20044;-84
2022/04/07 11:26:25;;;;;;;7.20;3.92;;;14.30;96.70;;;;;;5086018;28;20112;-85
2022/04/07 11:29:12;;;;;;;6.57;4.00;;;14.30;96.70;;;;;;5088666;28;20047;-84
2022/04/07 11:31:48;;;;;;;7.80;4.05;;;14.30;96.70;;;;;;5089158;28;20046;-83
2022/04/07 11:34:41;;;;;;;8.73;4.30;;;14.30;96.70;;;;;;5089835;28;20516;-82
2022/04/07 11:37:11;;;;;;;7.97;4.55;;;14.30;96.70;;;;;;5088638;28;20044;-84
2022/04/07 11:39:41;;;;;;;7.07;4.38;;;14.30;96.70;;;;;;5089256;28;20060;-82
2022/04/07 11:42:17;;;;;;;10.30;4.30;;;14.40;96.70;;;;;;5088644;28;20066;-83
2022/04/07 11:44:57;;;;;;;6.93;4.40;;;14.40;96.70;;;;;;5088950;28;20600;-83
2022/04/07 11:47:30;;;;;;;5.70;3.40;;;14.60;96.70;;;;;;5086345;28;20036;-83
2022/04/07 11:49:59;;;;;;;7.95;4.60;;;14.60;96.70;;;;;;5103383;28;20046;-84
2022/04/07 11:52:29;;;;;;;8.50;4.03;;;14.50;96.70;;;;;;5084425;28;20039;-83
2022/04/07 11:55:01;;;;;;;7.53;3.85;;;14.50;96.70;;;;;;5072552;28;20578;-84
2022/04/07 11:57:31;;;;;;;6.85;4.03;;;14.60;96.70;;;;;;5090387;28;20420;-84
2022/04/07 12:00:04;;;;;;;7.13;3.78;;;14.80;96.70;;;;;;5090405;28;20044;-84
2022/04/07 12:02:41;;;;;;;10.98;3.85;;;14.90;96.70;;;;;;5082395;28;20044;-84
2022/04/07 12:05:14;;;;;;;6.53;3.42;;;15.00;96.70;;;;;;5082933;28;20044;-83
2022/04/07 12:07:43;;;;;;;12.38;5.65;;;15.00;96.70;;;;;;5088334;28;20056;-85
2022/04/07 12:14:03;;;;;;;16.73;2.40;;;15.30;96.70;;;;;;5104228;27;20397;-85
2022/04/07 12:16:31;;;;;;;11.85;2.63;;;15.60;96.70;;;;;;5103479;28;20039;-84
2022/04/07 12:19:04;;;;;;;9.55;2.30;;;15.80;96.70;;;;;;5084566;28;20055;-84
2022/04/07 12:21:53;;;;;;;12.15;3.00;;;15.80;96.70;;;;;;5097450;28;20067;-86
2022/04/07 12:24:26;;;;;;;15.23;2.60;;;15.80;96.70;;;;;;5083855;28;20058;-84
2022/04/07 12:42:24;;;;;;;10.43;2.22;;;15.90;96.70;;;;;;5125553;27;20853;-84
2022/04/07 12:45:04;;;;;;;15.52;2.33;;;15.70;96.70;;;;;;5101810;28;20115;-82
2022/04/07 12:47:33;;;;;;;14.90;2.40;;;15.50;96.70;;;;;;5085894;28;20584;-84
2022/04/07 12:50:03;;;;;;;14.60;3.20;;;15.50;96.70;;;;;;5100983;28;20490;-85
2022/04/07 12:52:37;;;;;;;16.00;3.60;;;15.60;96.70;;;;;;5076580;28;20138;-88
2022/04/07 12:55:10;;;;;;;11.98;2.70;;;15.70;96.70;;;;;;5095465;28;20040;-78
2022/04/07 12:57:41;;;;;;;9.77;2.15;;;15.70;96.70;;;;;;5071232;28;20052;-82
2022/04/07 13:00:30;;;;;;;9.02;2.45;;;15.80;96.70;;;;;;5096199;28;20040;-79
2022/04/07 13:03:01;;;;;;;11.55;2.72;;;15.90;96.70;;;;;;5080103;28;20493;-79
2022/04/07 13:05:31;;;;;;;12.50;2.40;;;15.90;96.70;;;;;;5096183;28;20415;-77
2022/04/07 13:08:03;;;;;;;13.93;2.92;;;15.90;96.70;;;;;;5097686;28;20389;-82
2022/04/07 13:10:31;;;;;;;15.25;2.97;;;16.00;96.70;;;;;;5103153;28;20040;-87
2022/04/07 13:13:01;;;;;;;10.75;2.58;;;16.00;96.70;;;;;;5078613;28;20078;-83
2022/04/07 13:15:29;;;;;;;11.80;1.92;;;16.00;96.70;;;;;;5092047;28;20055;-84
2022/04/07 13:17:57;;;;;;;9.70;2.30;;;16.00;96.70;;;;;;5091392;28;20078;-84
2022/04/07 13:20:26;;;;;;;7.97;2.10;;;16.10;96.70;;;;;;5091056;28;20044;-83
2022/04/07 13:22:54;;;;;;;15.65;3.35;;;16.10;96.70;;;;;;5082792;28;20121;-85
2022/04/07 13:25:22;;;;;;;7.93;1.58;;;16.40;96.70;;;;;;5068321;28;20519;-83